sensor_id;sensor_type;location;lat;lon;timestamp;temperature;humidity
4312;DHT22;2169;49.086;9.284;2023-11-22T00:00:46;7.60;73.10
4312;DHT22;2169;49.086;9.284;2023-11-22T00:03:13;7.60;72.90
4312;DHT22;2169;49.086;9.284;2023-11-22T00:05:40;7.50;72.90
4312;DHT22;2169;49.086;9.284;2023-11-22T00:08:07;7.50;72.90
4312;DHT22;2169;49.086;9.284;2023-11-22T00:10:36;7.40;72.90
4312;DHT22;2169;49.086;9.284;2023-11-22T00:13:02;7.40;72.90
4312;DHT22;2169;49.086;9.284;2023-11-22T00:15:29;7.40;72.90
4312;DHT22;2169;49.086;9.284;2023-11-22T00:17:56;7.40;72.90
4312;DHT22;2169;49.086;9.284;2023-11-22T00:20:23;7.30;72.80
4312;DHT22;2169;49.086;9.284;2023-11-22T00:22:50;7.30;72.80
4312;DHT22;2169;49.086;9.284;2023-11-22T00:25:17;7.20;72.70
4312;DHT22;2169;49.086;9.284;2023-11-22T00:27:46;7.20;72.60
4312;DHT22;2169;49.086;9.284;2023-11-22T00:30:14;7.10;72.40
4312;DHT22;2169;49.086;9.284;2023-11-22T00:32:40;7.10;72.40
4312;DHT22;2169;49.086;9.284;2023-11-22T00:35:08;7.00;72.20
4312;DHT22;2169;49.086;9.284;2023-11-22T00:37:34;6.90;72.00
4312;DHT22;2169;49.086;9.284;2023-11-22T00:40:02;6.90;72.10
4312;DHT22;2169;49.086;9.284;2023-11-22T00:42:36;6.80;71.90
4312;DHT22;2169;49.086;9.284;2023-11-22T00:45:06;6.80;71.80
4312;DHT22;2169;49.086;9.284;2023-11-22T00:47:33;6.80;71.70
4312;DHT22;2169;49.086;9.284;2023-11-22T00:50:00;6.70;71.60
4312;DHT22;2169;49.086;9.284;2023-11-22T00:52:29;6.60;71.40
4312;DHT22;2169;49.086;9.284;2023-11-22T00:54:55;6.60;71.40
4312;DHT22;2169;49.086;9.284;2023-11-22T00:57:22;6.60;71.50
4312;DHT22;2169;49.086;9.284;2023-11-22T00:59:49;6.60;71.40
4312;DHT22;2169;49.086;9.284;2023-11-22T01:02:17;6.60;71.50
4312;DHT22;2169;49.086;9.284;2023-11-22T01:04:44;6.50;71.40
4312;DHT22;2169;49.086;9.284;2023-11-22T01:07:11;6.50;71.40
4312;DHT22;2169;49.086;9.284;2023-11-22T01:09:38;6.50;71.30
4312;DHT22;2169;49.086;9.284;2023-11-22T01:12:05;6.50;71.30
4312;DHT22;2169;49.086;9.284;2023-11-22T01:14:34;6.50;71.40
4312;DHT22;2169;49.086;9.284;2023-11-22T01:17:01;6.40;71.40
4312;DHT22;2169;49.086;9.284;2023-11-22T01:19:30;6.50;71.40
4312;DHT22;2169;49.086;9.284;2023-11-22T01:21:57;6.40;71.30
4312;DHT22;2169;49.086;9.284;2023-11-22T01:24:24;6.40;71.20
4312;DHT22;2169;49.086;9.284;2023-11-22T01:26:51;6.40;71.20
4312;DHT22;2169;49.086;9.284;2023-11-22T01:29:18;6.40;71.30
4312;DHT22;2169;49.086;9.284;2023-11-22T01:31:45;6.40;71.30
4312;DHT22;2169;49.086;9.284;2023-11-22T01:34:13;6.40;71.10
4312;DHT22;2169;49.086;9.284;2023-11-22T01:36:43;6.40;71.10
4312;DHT22;2169;49.086;9.284;2023-11-22T01:39:11;6.40;71.10
4312;DHT22;2169;49.086;9.284;2023-11-22T01:41:39;6.40;71.00
4312;DHT22;2169;49.086;9.284;2023-11-22T01:44:07;6.30;70.70
4312;DHT22;2169;49.086;9.284;2023-11-22T01:46:34;6.30;70.50
4312;DHT22;2169;49.086;9.284;2023-11-22T01:49:01;6.20;70.20
4312;DHT22;2169;49.086;9.284;2023-11-22T01:51:28;6.20;70.20
4312;DHT22;2169;49.086;9.284;2023-11-22T01:53:57;6.10;70.10
4312;DHT22;2169;49.086;9.284;2023-11-22T01:56:26;6.10;70.00
4312;DHT22;2169;49.086;9.284;2023-11-22T01:58:54;6.10;70.00
4312;DHT22;2169;49.086;9.284;2023-11-22T02:01:21;6.00;69.80
4312;DHT22;2169;49.086;9.284;2023-11-22T02:03:48;6.00;69.80
4312;DHT22;2169;49.086;9.284;2023-11-22T02:06:18;6.00;69.70
4312;DHT22;2169;49.086;9.284;2023-11-22T02:08:45;5.90;69.70
4312;DHT22;2169;49.086;9.284;2023-11-22T02:11:16;5.90;69.70
4312;DHT22;2169;49.086;9.284;2023-11-22T02:13:47;5.90;69.70
4312;DHT22;2169;49.086;9.284;2023-11-22T02:16:14;5.80;69.60
4312;DHT22;2169;49.086;9.284;2023-11-22T02:18:41;5.80;70.40
4312;DHT22;2169;49.086;9.284;2023-11-22T02:21:09;5.80;69.70
4312;DHT22;2169;49.086;9.284;2023-11-22T02:23:38;5.80;69.60
4312;DHT22;2169;49.086;9.284;2023-11-22T02:26:04;5.80;69.60
4312;DHT22;2169;49.086;9.284;2023-11-22T02:28:31;5.80;69.60
4312;DHT22;2169;49.086;9.284;2023-11-22T02:30:58;5.80;69.70
4312;DHT22;2169;49.086;9.284;2023-11-22T02:33:25;5.80;69.70
4312;DHT22;2169;49.086;9.284;2023-11-22T02:35:53;5.80;69.60
4312;DHT22;2169;49.086;9.284;2023-11-22T02:38:20;5.70;69.50
4312;DHT22;2169;49.086;9.284;2023-11-22T02:40:48;5.70;69.60
4312;DHT22;2169;49.086;9.284;2023-11-22T02:43:15;5.70;69.60
4312;DHT22;2169;49.086;9.284;2023-11-22T02:45:43;5.80;69.70
4312;DHT22;2169;49.086;9.284;2023-11-22T02:48:10;5.70;69.50
4312;DHT22;2169;49.086;9.284;2023-11-22T02:50:37;5.70;69.50
4312;DHT22;2169;49.086;9.284;2023-11-22T02:53:04;5.70;69.50
4312;DHT22;2169;49.086;9.284;2023-11-22T02:55:31;5.70;69.50
4312;DHT22;2169;49.086;9.284;2023-11-22T02:58:00;5.70;69.60
4312;DHT22;2169;49.086;9.284;2023-11-22T03:00:27;5.70;69.70
4312;DHT22;2169;49.086;9.284;2023-11-22T03:02:54;5.70;69.60
4312;DHT22;2169;49.086;9.284;2023-11-22T03:05:22;5.70;69.60
4312;DHT22;2169;49.086;9.284;2023-11-22T03:07:49;5.70;69.50
4312;DHT22;2169;49.086;9.284;2023-11-22T03:10:16;5.60;69.50
4312;DHT22;2169;49.086;9.284;2023-11-22T03:12:44;5.60;69.40
4312;DHT22;2169;49.086;9.284;2023-11-22T03:15:13;5.60;69.40
4312;DHT22;2169;49.086;9.284;2023-11-22T03:17:39;5.50;69.40
4312;DHT22;2169;49.086;9.284;2023-11-22T03:20:07;5.50;69.40
4312;DHT22;2169;49.086;9.284;2023-11-22T03:22:36;5.50;69.40
4312;DHT22;2169;49.086;9.284;2023-11-22T03:25:04;5.40;69.30
4312;DHT22;2169;49.086;9.284;2023-11-22T03:27:31;5.40;69.30
4312;DHT22;2169;49.086;9.284;2023-11-22T03:29:59;5.40;69.40
4312;DHT22;2169;49.086;9.284;2023-11-22T03:32:28;5.40;69.30
4312;DHT22;2169;49.086;9.284;2023-11-22T03:34:55;5.40;69.30
4312;DHT22;2169;49.086;9.284;2023-11-22T03:37:23;5.40;69.30
4312;DHT22;2169;49.086;9.284;2023-11-22T03:39:50;5.30;69.10
4312;DHT22;2169;49.086;9.284;2023-11-22T03:42:16;5.30;69.00
4312;DHT22;2169;49.086;9.284;2023-11-22T03:44:43;5.30;68.90
4312;DHT22;2169;49.086;9.284;2023-11-22T03:47:10;5.30;69.00
4312;DHT22;2169;49.086;9.284;2023-11-22T03:49:39;5.30;69.10
4312;DHT22;2169;49.086;9.284;2023-11-22T03:52:07;5.30;69.00
4312;DHT22;2169;49.086;9.284;2023-11-22T03:54:34;5.30;69.00
4312;DHT22;2169;49.086;9.284;2023-11-22T03:57:01;5.20;68.90
4312;DHT22;2169;49.086;9.284;2023-11-22T03:59:28;5.20;68.90
4312;DHT22;2169;49.086;9.284;2023-11-22T04:01:55;5.30;69.00
4312;DHT22;2169;49.086;9.284;2023-11-22T04:04:22;5.30;69.00
4312;DHT22;2169;49.086;9.284;2023-11-22T04:06:51;5.20;68.90
4312;DHT22;2169;49.086;9.284;2023-11-22T04:09:18;5.20;68.80
4312;DHT22;2169;49.086;9.284;2023-11-22T04:11:45;5.20;68.80
4312;DHT22;2169;49.086;9.284;2023-11-22T04:14:12;5.30;68.90
4312;DHT22;2169;49.086;9.284;2023-11-22T04:16:39;5.30;68.90
4312;DHT22;2169;49.086;9.284;2023-11-22T04:19:05;5.30;69.00
4312;DHT22;2169;49.086;9.284;2023-11-22T04:21:33;5.30;69.00
4312;DHT22;2169;49.086;9.284;2023-11-22T04:24:01;5.30;68.90
4312;DHT22;2169;49.086;9.284;2023-11-22T04:26:28;5.30;68.90
4312;DHT22;2169;49.086;9.284;2023-11-22T04:28:55;5.30;68.90
4312;DHT22;2169;49.086;9.284;2023-11-22T04:31:22;5.30;69.00
4312;DHT22;2169;49.086;9.284;2023-11-22T04:33:49;5.30;69.00
4312;DHT22;2169;49.086;9.284;2023-11-22T04:36:16;5.30;69.00
4312;DHT22;2169;49.086;9.284;2023-11-22T04:38:43;5.30;69.00
4312;DHT22;2169;49.086;9.284;2023-11-22T04:41:11;5.30;69.00
4312;DHT22;2169;49.086;9.284;2023-11-22T04:43:38;5.30;69.00
4312;DHT22;2169;49.086;9.284;2023-11-22T04:46:05;5.30;68.90
4312;DHT22;2169;49.086;9.284;2023-11-22T04:48:32;5.30;68.90
4312;DHT22;2169;49.086;9.284;2023-11-22T04:50:59;5.30;68.90
4312;DHT22;2169;49.086;9.284;2023-11-22T04:53:25;5.20;68.80
4312;DHT22;2169;49.086;9.284;2023-11-22T04:55:52;5.30;69.00
4312;DHT22;2169;49.086;9.284;2023-11-22T04:58:21;5.30;69.00
4312;DHT22;2169;49.086;9.284;2023-11-22T05:00:48;5.30;69.00
4312;DHT22;2169;49.086;9.284;2023-11-22T05:03:15;5.20;68.90
4312;DHT22;2169;49.086;9.284;2023-11-22T05:05:42;5.20;68.90
4312;DHT22;2169;49.086;9.284;2023-11-22T05:08:09;5.20;68.90
4312;DHT22;2169;49.086;9.284;2023-11-22T05:10:36;5.20;68.90
4312;DHT22;2169;49.086;9.284;2023-11-22T05:13:03;5.20;68.90
4312;DHT22;2169;49.086;9.284;2023-11-22T05:15:32;5.20;68.90
4312;DHT22;2169;49.086;9.284;2023-11-22T05:17:59;5.20;68.80
4312;DHT22;2169;49.086;9.284;2023-11-22T05:20:26;5.10;68.80
4312;DHT22;2169;49.086;9.284;2023-11-22T05:22:53;5.10;69.40
4312;DHT22;2169;49.086;9.284;2023-11-22T05:25:19;5.10;68.60
4312;DHT22;2169;49.086;9.284;2023-11-22T05:27:46;5.10;68.50
4312;DHT22;2169;49.086;9.284;2023-11-22T05:30:16;5.00;68.40
4312;DHT22;2169;49.086;9.284;2023-11-22T05:32:44;5.00;68.30
4312;DHT22;2169;49.086;9.284;2023-11-22T05:35:11;5.00;68.30
4312;DHT22;2169;49.086;9.284;2023-11-22T05:37:38;5.00;68.20
4312;DHT22;2169;49.086;9.284;2023-11-22T05:40:06;5.00;68.20
4312;DHT22;2169;49.086;9.284;2023-11-22T05:42:35;4.90;68.20
4312;DHT22;2169;49.086;9.284;2023-11-22T05:45:03;4.90;68.10
4312;DHT22;2169;49.086;9.284;2023-11-22T05:47:31;4.90;68.10
4312;DHT22;2169;49.086;9.284;2023-11-22T05:49:59;4.90;68.10
4312;DHT22;2169;49.086;9.284;2023-11-22T05:52:26;4.90;68.00
4312;DHT22;2169;49.086;9.284;2023-11-22T05:54:53;4.90;68.00
4312;DHT22;2169;49.086;9.284;2023-11-22T05:57:22;4.90;68.00
4312;DHT22;2169;49.086;9.284;2023-11-22T05:59:48;4.90;67.90
4312;DHT22;2169;49.086;9.284;2023-11-22T06:02:15;4.90;67.80
4312;DHT22;2169;49.086;9.284;2023-11-22T06:04:42;4.80;67.60
4312;DHT22;2169;49.086;9.284;2023-11-22T06:07:10;4.80;67.50
4312;DHT22;2169;49.086;9.284;2023-11-22T06:09:37;4.80;67.50
4312;DHT22;2169;49.086;9.284;2023-11-22T06:12:04;4.70;67.40
4312;DHT22;2169;49.086;9.284;2023-11-22T06:14:32;4.70;67.30
4312;DHT22;2169;49.086;9.284;2023-11-22T06:16:59;4.70;67.20
4312;DHT22;2169;49.086;9.284;2023-11-22T06:19:26;4.70;67.20
4312;DHT22;2169;49.086;9.284;2023-11-22T06:21:53;4.70;67.10
4312;DHT22;2169;49.086;9.284;2023-11-22T06:24:22;4.60;66.90
4312;DHT22;2169;49.086;9.284;2023-11-22T06:26:49;4.60;67.00
4312;DHT22;2169;49.086;9.284;2023-11-22T06:29:16;4.60;66.90
4312;DHT22;2169;49.086;9.284;2023-11-22T06:31:43;4.60;66.80
4312;DHT22;2169;49.086;9.284;2023-11-22T06:34:10;4.50;66.70
4312;DHT22;2169;49.086;9.284;2023-11-22T06:36:37;4.50;66.40
4312;DHT22;2169;49.086;9.284;2023-11-22T06:39:04;4.40;66.40
4312;DHT22;2169;49.086;9.284;2023-11-22T06:41:33;4.40;66.20
4312;DHT22;2169;49.086;9.284;2023-11-22T06:44:00;4.40;66.20
4312;DHT22;2169;49.086;9.284;2023-11-22T06:46:29;4.40;66.40
4312;DHT22;2169;49.086;9.284;2023-11-22T06:48:55;4.40;66.20
4312;DHT22;2169;49.086;9.284;2023-11-22T06:51:22;4.40;66.20
4312;DHT22;2169;49.086;9.284;2023-11-22T06:54:14;4.30;66.20
4312;DHT22;2169;49.086;9.284;2023-11-22T06:56:43;4.40;66.20
4312;DHT22;2169;49.086;9.284;2023-11-22T06:59:11;4.30;66.00
4312;DHT22;2169;49.086;9.284;2023-11-22T07:01:38;4.30;65.90
4312;DHT22;2169;49.086;9.284;2023-11-22T07:04:05;4.30;65.80
4312;DHT22;2169;49.086;9.284;2023-11-22T07:06:32;4.20;65.70
4312;DHT22;2169;49.086;9.284;2023-11-22T07:09:00;4.20;65.80
4312;DHT22;2169;49.086;9.284;2023-11-22T07:11:27;4.20;65.70
4312;DHT22;2169;49.086;9.284;2023-11-22T07:13:57;4.20;65.60
4312;DHT22;2169;49.086;9.284;2023-11-22T07:16:24;4.10;65.60
4312;DHT22;2169;49.086;9.284;2023-11-22T07:18:51;4.10;65.50
4312;DHT22;2169;49.086;9.284;2023-11-22T07:21:18;4.10;65.20
4312;DHT22;2169;49.086;9.284;2023-11-22T07:23:46;4.00;65.10
4312;DHT22;2169;49.086;9.284;2023-11-22T07:26:13;4.00;65.30
4312;DHT22;2169;49.086;9.284;2023-11-22T07:28:41;4.00;65.20
4312;DHT22;2169;49.086;9.284;2023-11-22T07:31:09;3.90;65.00
4312;DHT22;2169;49.086;9.284;2023-11-22T07:33:37;3.90;64.90
4312;DHT22;2169;49.086;9.284;2023-11-22T07:36:06;3.90;64.90
4312;DHT22;2169;49.086;9.284;2023-11-22T07:38:33;3.80;64.60
4312;DHT22;2169;49.086;9.284;2023-11-22T07:41:00;3.80;64.60
4312;DHT22;2169;49.086;9.284;2023-11-22T07:43:27;3.80;64.50
4312;DHT22;2169;49.086;9.284;2023-11-22T07:45:54;3.70;64.50
4312;DHT22;2169;49.086;9.284;2023-11-22T07:48:22;3.70;64.50
4312;DHT22;2169;49.086;9.284;2023-11-22T07:50:49;3.70;64.40
4312;DHT22;2169;49.086;9.284;2023-11-22T07:53:16;3.70;64.40
4312;DHT22;2169;49.086;9.284;2023-11-22T07:55:43;3.70;64.40
4312;DHT22;2169;49.086;9.284;2023-11-22T07:58:09;3.60;64.20
4312;DHT22;2169;49.086;9.284;2023-11-22T08:00:36;3.60;64.20
4312;DHT22;2169;49.086;9.284;2023-11-22T08:03:03;3.60;64.20
4312;DHT22;2169;49.086;9.284;2023-11-22T08:05:33;3.60;64.20
4312;DHT22;2169;49.086;9.284;2023-11-22T08:08:02;3.60;64.20
4312;DHT22;2169;49.086;9.284;2023-11-22T08:10:32;3.60;64.20
4312;DHT22;2169;49.086;9.284;2023-11-22T08:13:00;3.60;64.10
4312;DHT22;2169;49.086;9.284;2023-11-22T08:15:27;3.60;64.00
4312;DHT22;2169;49.086;9.284;2023-11-22T08:17:57;3.60;63.90
4312;DHT22;2169;49.086;9.284;2023-11-22T08:20:24;3.60;63.90
4312;DHT22;2169;49.086;9.284;2023-11-22T08:22:52;3.60;63.90
4312;DHT22;2169;49.086;9.284;2023-11-22T08:25:19;3.60;63.80
4312;DHT22;2169;49.086;9.284;2023-11-22T08:27:46;3.60;63.70
4312;DHT22;2169;49.086;9.284;2023-11-22T08:30:13;3.60;63.70
4312;DHT22;2169;49.086;9.284;2023-11-22T08:32:41;3.60;63.60
4312;DHT22;2169;49.086;9.284;2023-11-22T08:35:09;3.50;63.50
4312;DHT22;2169;49.086;9.284;2023-11-22T08:37:39;3.60;63.70
4312;DHT22;2169;49.086;9.284;2023-11-22T08:40:10;3.60;63.70
4312;DHT22;2169;49.086;9.284;2023-11-22T08:42:39;3.60;63.70
4312;DHT22;2169;49.086;9.284;2023-11-22T08:45:07;3.60;63.70
4312;DHT22;2169;49.086;9.284;2023-11-22T08:47:35;3.60;63.80
4312;DHT22;2169;49.086;9.284;2023-11-22T08:50:02;3.60;63.70
4312;DHT22;2169;49.086;9.284;2023-11-22T08:52:30;3.70;63.70
4312;DHT22;2169;49.086;9.284;2023-11-22T08:54:58;3.70;63.70
4312;DHT22;2169;49.086;9.284;2023-11-22T08:57:27;3.70;63.60
4312;DHT22;2169;49.086;9.284;2023-11-22T08:59:54;3.70;63.60
4312;DHT22;2169;49.086;9.284;2023-11-22T09:02:21;3.70;63.70
4312;DHT22;2169;49.086;9.284;2023-11-22T09:04:48;3.70;63.60
4312;DHT22;2169;49.086;9.284;2023-11-22T09:07:15;3.60;63.40
4312;DHT22;2169;49.086;9.284;2023-11-22T09:09:42;3.70;63.40
4312;DHT22;2169;49.086;9.284;2023-11-22T09:12:09;3.70;63.50
4312;DHT22;2169;49.086;9.284;2023-11-22T09:14:40;3.70;63.40
4312;DHT22;2169;49.086;9.284;2023-11-22T09:17:08;3.70;63.40
4312;DHT22;2169;49.086;9.284;2023-11-22T09:19:35;3.80;63.30
4312;DHT22;2169;49.086;9.284;2023-11-22T09:22:03;3.70;63.10
4312;DHT22;2169;49.086;9.284;2023-11-22T09:24:31;3.70;63.10
4312;DHT22;2169;49.086;9.284;2023-11-22T09:26:58;3.70;63.10
4312;DHT22;2169;49.086;9.284;2023-11-22T09:29:26;3.70;63.00
4312;DHT22;2169;49.086;9.284;2023-11-22T09:31:54;3.70;63.00
4312;DHT22;2169;49.086;9.284;2023-11-22T09:34:22;3.70;63.00
4312;DHT22;2169;49.086;9.284;2023-11-22T09:36:49;3.70;63.00
4312;DHT22;2169;49.086;9.284;2023-11-22T09:39:16;3.70;63.10
4312;DHT22;2169;49.086;9.284;2023-11-22T09:41:46;3.80;63.20
4312;DHT22;2169;49.086;9.284;2023-11-22T09:44:13;3.80;63.30
4312;DHT22;2169;49.086;9.284;2023-11-22T09:46:42;3.90;63.30
4312;DHT22;2169;49.086;9.284;2023-11-22T09:49:16;3.90;63.20
4312;DHT22;2169;49.086;9.284;2023-11-22T09:51:48;3.90;63.20
4312;DHT22;2169;49.086;9.284;2023-11-22T09:54:18;3.90;63.00
4312;DHT22;2169;49.086;9.284;2023-11-22T09:56:49;3.90;63.00
4312;DHT22;2169;49.086;9.284;2023-11-22T09:59:18;3.90;63.00
4312;DHT22;2169;49.086;9.284;2023-11-22T10:01:45;4.00;63.20
4312;DHT22;2169;49.086;9.284;2023-11-22T10:04:13;4.00;63.20
4312;DHT22;2169;49.086;9.284;2023-11-22T10:06:40;4.00;63.10
4312;DHT22;2169;49.086;9.284;2023-11-22T10:09:11;4.00;63.00
4312;DHT22;2169;49.086;9.284;2023-11-22T10:11:40;4.10;63.10
4312;DHT22;2169;49.086;9.284;2023-11-22T10:14:09;4.10;63.10
4312;DHT22;2169;49.086;9.284;2023-11-22T10:16:36;4.10;63.10
4312;DHT22;2169;49.086;9.284;2023-11-22T10:19:03;4.10;63.00
4312;DHT22;2169;49.086;9.284;2023-11-22T10:21:33;4.10;62.90
4312;DHT22;2169;49.086;9.284;2023-11-22T10:24:01;4.10;62.90
4312;DHT22;2169;49.086;9.284;2023-11-22T10:26:28;4.20;63.00
4312;DHT22;2169;49.086;9.284;2023-11-22T10:28:56;4.20;63.00
4312;DHT22;2169;49.086;9.284;2023-11-22T10:31:24;4.20;63.00
4312;DHT22;2169;49.086;9.284;2023-11-22T10:33:52;4.20;62.90
4312;DHT22;2169;49.086;9.284;2023-11-22T10:36:21;4.20;63.00
4312;DHT22;2169;49.086;9.284;2023-11-22T10:38:50;4.30;63.10
4312;DHT22;2169;49.086;9.284;2023-11-22T10:41:20;4.30;63.00
4312;DHT22;2169;49.086;9.284;2023-11-22T10:43:47;4.30;62.90
4312;DHT22;2169;49.086;9.284;2023-11-22T10:46:15;4.30;62.80
4312;DHT22;2169;49.086;9.284;2023-11-22T10:48:42;4.30;62.80
4312;DHT22;2169;49.086;9.284;2023-11-22T10:51:12;4.30;62.70
4312;DHT22;2169;49.086;9.284;2023-11-22T10:53:51;4.30;62.80
4312;DHT22;2169;49.086;9.284;2023-11-22T10:56:20;4.40;62.90
4312;DHT22;2169;49.086;9.284;2023-11-22T10:58:47;4.40;63.70
4312;DHT22;2169;49.086;9.284;2023-11-22T11:01:16;4.50;63.10
4312;DHT22;2169;49.086;9.284;2023-11-22T11:03:47;4.50;63.10
4312;DHT22;2169;49.086;9.284;2023-11-22T11:06:22;4.50;63.10
4312;DHT22;2169;49.086;9.284;2023-11-22T11:08:55;4.50;62.80
4312;DHT22;2169;49.086;9.284;2023-11-22T11:11:25;4.50;62.70
4312;DHT22;2169;49.086;9.284;2023-11-22T11:13:54;4.50;62.80
4312;DHT22;2169;49.086;9.284;2023-11-22T11:16:22;4.50;62.80
4312;DHT22;2169;49.086;9.284;2023-11-22T11:18:50;4.50;62.80
4312;DHT22;2169;49.086;9.284;2023-11-22T11:21:17;4.50;62.70
4312;DHT22;2169;49.086;9.284;2023-11-22T11:23:44;4.50;62.70
4312;DHT22;2169;49.086;9.284;2023-11-22T11:26:17;4.50;62.70
4312;DHT22;2169;49.086;9.284;2023-11-22T11:28:47;4.60;62.80
4312;DHT22;2169;49.086;9.284;2023-11-22T11:31:15;4.50;62.50
4312;DHT22;2169;49.086;9.284;2023-11-22T11:33:55;4.50;62.40
4312;DHT22;2169;49.086;9.284;2023-11-22T11:36:24;4.50;62.40
4312;DHT22;2169;49.086;9.284;2023-11-22T11:38:52;4.50;62.60
4312;DHT22;2169;49.086;9.284;2023-11-22T11:41:26;4.50;62.60
4312;DHT22;2169;49.086;9.284;2023-11-22T11:43:53;4.50;62.70
4312;DHT22;2169;49.086;9.284;2023-11-22T11:46:21;4.50;62.60
4312;DHT22;2169;49.086;9.284;2023-11-22T11:48:51;4.50;62.50
4312;DHT22;2169;49.086;9.284;2023-11-22T11:51:19;4.50;62.40
4312;DHT22;2169;49.086;9.284;2023-11-22T11:53:47;4.50;62.50
4312;DHT22;2169;49.086;9.284;2023-11-22T11:56:14;4.60;62.70
4312;DHT22;2169;49.086;9.284;2023-11-22T11:58:43;4.60;62.60
4312;DHT22;2169;49.086;9.284;2023-11-22T12:01:12;4.60;62.50
4312;DHT22;2169;49.086;9.284;2023-11-22T12:03:39;4.60;62.50
4312;DHT22;2169;49.086;9.284;2023-11-22T12:06:06;4.60;62.60
4312;DHT22;2169;49.086;9.284;2023-11-22T12:08:34;4.60;62.60
4312;DHT22;2169;49.086;9.284;2023-11-22T12:11:02;4.60;62.60
4312;DHT22;2169;49.086;9.284;2023-11-22T12:13:30;4.60;62.30
4312;DHT22;2169;49.086;9.284;2023-11-22T12:15:58;4.60;62.40
4312;DHT22;2169;49.086;9.284;2023-11-22T12:18:25;4.60;62.30
4312;DHT22;2169;49.086;9.284;2023-11-22T12:20:56;4.70;62.40
4312;DHT22;2169;49.086;9.284;2023-11-22T12:23:24;4.70;62.40
4312;DHT22;2169;49.086;9.284;2023-11-22T12:25:56;4.70;62.50
4312;DHT22;2169;49.086;9.284;2023-11-22T12:28:24;4.80;62.60
4312;DHT22;2169;49.086;9.284;2023-11-22T12:30:51;4.80;62.60
4312;DHT22;2169;49.086;9.284;2023-11-22T12:33:19;4.90;62.70
4312;DHT22;2169;49.086;9.284;2023-11-22T12:35:46;4.90;62.60
4312;DHT22;2169;49.086;9.284;2023-11-22T12:38:14;5.00;62.70
4312;DHT22;2169;49.086;9.284;2023-11-22T12:40:45;5.00;62.60
4312;DHT22;2169;49.086;9.284;2023-11-22T12:43:13;5.00;62.50
4312;DHT22;2169;49.086;9.284;2023-11-22T12:45:40;5.00;62.50
4312;DHT22;2169;49.086;9.284;2023-11-22T12:48:22;5.00;62.20
4312;DHT22;2169;49.086;9.284;2023-11-22T12:50:50;5.00;62.20
4312;DHT22;2169;49.086;9.284;2023-11-22T12:53:18;5.00;62.20
4312;DHT22;2169;49.086;9.284;2023-11-22T12:55:47;5.00;62.10
4312;DHT22;2169;49.086;9.284;2023-11-22T12:58:15;5.00;61.90
4312;DHT22;2169;49.086;9.284;2023-11-22T13:00:43;5.00;61.80
4312;DHT22;2169;49.086;9.284;2023-11-22T13:03:10;5.00;61.90
4312;DHT22;2169;49.086;9.284;2023-11-22T13:05:39;5.00;61.90
4312;DHT22;2169;49.086;9.284;2023-11-22T13:08:08;5.00;61.90
4312;DHT22;2169;49.086;9.284;2023-11-22T13:10:36;5.00;61.90
4312;DHT22;2169;49.086;9.284;2023-11-22T13:13:03;5.00;61.90
4312;DHT22;2169;49.086;9.284;2023-11-22T13:15:34;5.00;61.90
4312;DHT22;2169;49.086;9.284;2023-11-22T13:18:01;5.00;61.90
4312;DHT22;2169;49.086;9.284;2023-11-22T13:20:28;5.00;61.90
4312;DHT22;2169;49.086;9.284;2023-11-22T13:22:57;5.00;61.90
4312;DHT22;2169;49.086;9.284;2023-11-22T13:25:25;5.00;61.90
4312;DHT22;2169;49.086;9.284;2023-11-22T13:27:52;5.00;61.90
4312;DHT22;2169;49.086;9.284;2023-11-22T13:30:22;5.00;61.70
4312;DHT22;2169;49.086;9.284;2023-11-22T13:32:50;4.90;61.70
4312;DHT22;2169;49.086;9.284;2023-11-22T13:35:17;5.00;61.80
4312;DHT22;2169;49.086;9.284;2023-11-22T13:37:45;4.90;62.50
4312;DHT22;2169;49.086;9.284;2023-11-22T13:40:16;5.00;62.50
4312;DHT22;2169;49.086;9.284;2023-11-22T13:42:45;5.00;61.90
4312;DHT22;2169;49.086;9.284;2023-11-22T13:45:14;5.00;61.90
4312;DHT22;2169;49.086;9.284;2023-11-22T13:47:43;5.00;61.80
4312;DHT22;2169;49.086;9.284;2023-11-22T13:50:12;5.00;61.80
4312;DHT22;2169;49.086;9.284;2023-11-22T13:52:44;4.90;61.70
4312;DHT22;2169;49.086;9.284;2023-11-22T13:55:11;4.90;61.70
4312;DHT22;2169;49.086;9.284;2023-11-22T13:57:39;4.90;61.70
4312;DHT22;2169;49.086;9.284;2023-11-22T14:00:07;5.00;61.70
4312;DHT22;2169;49.086;9.284;2023-11-22T14:02:41;4.90;61.60
4312;DHT22;2169;49.086;9.284;2023-11-22T14:05:08;5.00;61.70
4312;DHT22;2169;49.086;9.284;2023-11-22T14:07:38;5.00;61.70
4312;DHT22;2169;49.086;9.284;2023-11-22T14:10:05;5.00;61.70
4312;DHT22;2169;49.086;9.284;2023-11-22T14:12:32;5.00;61.70
4312;DHT22;2169;49.086;9.284;2023-11-22T14:15:02;4.90;61.60
4312;DHT22;2169;49.086;9.284;2023-11-22T14:17:31;5.00;61.60
4312;DHT22;2169;49.086;9.284;2023-11-22T14:19:58;4.90;61.50
4312;DHT22;2169;49.086;9.284;2023-11-22T14:22:25;4.90;61.60
4312;DHT22;2169;49.086;9.284;2023-11-22T14:24:52;4.90;61.60
4312;DHT22;2169;49.086;9.284;2023-11-22T14:27:19;5.00;61.70
4312;DHT22;2169;49.086;9.284;2023-11-22T14:29:46;5.00;61.70
4312;DHT22;2169;49.086;9.284;2023-11-22T14:32:18;5.00;61.60
4312;DHT22;2169;49.086;9.284;2023-11-22T14:34:45;5.00;61.60
4312;DHT22;2169;49.086;9.284;2023-11-22T14:37:13;5.00;61.60
4312;DHT22;2169;49.086;9.284;2023-11-22T14:39:40;5.00;61.60
4312;DHT22;2169;49.086;9.284;2023-11-22T14:42:08;5.00;61.60
4312;DHT22;2169;49.086;9.284;2023-11-22T14:44:35;5.00;62.20
4312;DHT22;2169;49.086;9.284;2023-11-22T14:47:02;5.00;61.50
4312;DHT22;2169;49.086;9.284;2023-11-22T14:49:33;5.00;61.50
4312;DHT22;2169;49.086;9.284;2023-11-22T14:52:00;5.00;61.50
4312;DHT22;2169;49.086;9.284;2023-11-22T14:54:27;5.00;61.50
4312;DHT22;2169;49.086;9.284;2023-11-22T14:56:54;5.00;61.50
4312;DHT22;2169;49.086;9.284;2023-11-22T14:59:24;5.00;61.40
4312;DHT22;2169;49.086;9.284;2023-11-22T15:01:51;4.90;61.30
4312;DHT22;2169;49.086;9.284;2023-11-22T15:04:18;4.90;61.30
4312;DHT22;2169;49.086;9.284;2023-11-22T15:06:46;4.90;61.30
4312;DHT22;2169;49.086;9.284;2023-11-22T15:09:15;4.90;61.30
4312;DHT22;2169;49.086;9.284;2023-11-22T15:11:41;4.90;61.30
4312;DHT22;2169;49.086;9.284;2023-11-22T15:14:08;4.90;61.30
4312;DHT22;2169;49.086;9.284;2023-11-22T15:16:35;4.90;61.20
4312;DHT22;2169;49.086;9.284;2023-11-22T15:19:03;4.90;61.20
4312;DHT22;2169;49.086;9.284;2023-11-22T15:21:32;4.90;61.20
4312;DHT22;2169;49.086;9.284;2023-11-22T15:24:01;4.90;61.20
4312;DHT22;2169;49.086;9.284;2023-11-22T15:26:29;4.90;61.30
4312;DHT22;2169;49.086;9.284;2023-11-22T15:28:55;4.90;61.20
4312;DHT22;2169;49.086;9.284;2023-11-22T15:31:22;4.90;61.20
4312;DHT22;2169;49.086;9.284;2023-11-22T15:33:49;4.90;61.20
4312;DHT22;2169;49.086;9.284;2023-11-22T15:36:16;4.90;61.10
4312;DHT22;2169;49.086;9.284;2023-11-22T15:38:43;4.90;61.20
4312;DHT22;2169;49.086;9.284;2023-11-22T15:41:12;4.90;61.10
4312;DHT22;2169;49.086;9.284;2023-11-22T15:43:39;4.90;61.10
4312;DHT22;2169;49.086;9.284;2023-11-22T15:46:10;4.90;61.10
4312;DHT22;2169;49.086;9.284;2023-11-22T15:48:38;4.90;61.00
4312;DHT22;2169;49.086;9.284;2023-11-22T15:51:05;4.90;61.70
4312;DHT22;2169;49.086;9.284;2023-11-22T15:53:32;5.10;60.60
4312;DHT22;2169;49.086;9.284;2023-11-22T15:55:59;5.00;60.60
4312;DHT22;2169;49.086;9.284;2023-11-22T15:58:27;5.00;60.70
4312;DHT22;2169;49.086;9.284;2023-11-22T16:00:54;5.00;60.80
4312;DHT22;2169;49.086;9.284;2023-11-22T16:03:23;5.00;60.80
4312;DHT22;2169;49.086;9.284;2023-11-22T16:05:50;5.00;60.90
4312;DHT22;2169;49.086;9.284;2023-11-22T16:08:19;4.90;60.80
4312;DHT22;2169;49.086;9.284;2023-11-22T16:10:46;4.90;60.80
4312;DHT22;2169;49.086;9.284;2023-11-22T16:13:13;4.90;60.80
4312;DHT22;2169;49.086;9.284;2023-11-22T16:15:41;4.90;60.90
4312;DHT22;2169;49.086;9.284;2023-11-22T16:18:10;4.90;61.00
4312;DHT22;2169;49.086;9.284;2023-11-22T16:20:38;4.80;60.90